createdAt,value
2018-05-19T00:00:58.718Z,28.33
2018-05-19T00:03:26.263Z,26.23
2018-05-19T00:05:53.814Z,18.17
2018-05-19T00:08:21.362Z,20.93
2018-05-19T00:10:48.906Z,19.13
2018-05-19T00:13:16.425Z,25.13
2018-05-19T00:15:44.134Z,20.47
2018-05-19T00:18:11.667Z,19.33
2018-05-19T00:20:39.183Z,20.63
2018-05-19T00:23:06.746Z,19.80
2018-05-19T00:25:34.647Z,27.63
2018-05-19T00:28:02.174Z,20.63
2018-05-19T00:30:29.693Z,16.47
2018-05-19T00:32:57.451Z,21.83
2018-05-19T00:35:24.983Z,20.33
2018-05-19T00:37:52.497Z,22.37
2018-05-19T00:40:20.041Z,31.87
2018-05-19T00:42:47.745Z,19.70
2018-05-19T00:45:15.270Z,23.83
2018-05-19T00:47:42.794Z,24.30
2018-05-19T00:50:10.336Z,24.43
2018-05-19T00:52:37.858Z,19.50
2018-05-19T00:55:05.410Z,21.83
2018-05-19T00:57:32.954Z,20.83
2018-05-19T01:00:00.481Z,18.77
2018-05-19T01:02:28.031Z,20.37
2018-05-19T01:04:55.554Z,26.50
2018-05-19T01:07:23.072Z,22.90
2018-05-19T01:09:50.613Z,20.73
2018-05-19T01:12:18.129Z,23.57
2018-05-19T01:14:45.677Z,20.83
2018-05-19T01:17:13.193Z,21.63
2018-05-19T01:19:40.730Z,27.13
2018-05-19T01:22:08.270Z,23.10
2018-05-19T01:24:35.785Z,24.90
2018-05-19T01:27:03.551Z,21.30
2018-05-19T01:29:31.065Z,19.83
2018-05-19T01:31:58.591Z,17.33
2018-05-19T01:34:26.138Z,17.60
2018-05-19T01:36:53.758Z,20.60
2018-05-19T01:39:21.311Z,20.17
2018-05-19T01:41:49.315Z,14.23
2018-05-19T01:44:16.847Z,16.83
2018-05-19T01:46:44.361Z,17.43
2018-05-19T01:49:11.962Z,14.13
2018-05-19T01:51:39.487Z,16.23
2018-05-19T01:54:07.014Z,16.90
2018-05-19T01:56:34.555Z,25.47
2018-05-19T01:59:02.074Z,17.60
2018-05-19T02:01:29.622Z,22.37
2018-05-19T02:03:57.141Z,20.87
2018-05-19T02:06:24.825Z,13.77
2018-05-19T02:08:52.350Z,21.70
2018-05-19T02:11:19.866Z,21.87
2018-05-19T02:13:47.419Z,20.20
2018-05-19T02:16:14.937Z,23.43
2018-05-19T02:18:42.477Z,21.30
2018-05-19T02:21:10.003Z,17.33
2018-05-19T02:23:37.549Z,23.97
2018-05-19T02:26:05.078Z,21.63
2018-05-19T02:28:32.603Z,24.20
2018-05-19T02:31:00.149Z,18.53
2018-05-19T02:33:27.694Z,21.33
2018-05-19T02:35:55.247Z,19.83
2018-05-19T02:38:22.790Z,24.53
2018-05-19T02:40:50.343Z,16.83
2018-05-19T02:43:17.862Z,22.17
2018-05-19T02:45:45.440Z,29.63
2018-05-19T02:48:12.963Z,21.80
2018-05-19T02:50:40.510Z,23.87
2018-05-19T02:53:08.215Z,17.40
2018-05-19T02:55:35.738Z,17.83
2018-05-19T02:58:04.067Z,18.00
2018-05-19T03:00:31.619Z,22.03
2018-05-19T03:02:59.141Z,18.73
2018-05-19T03:05:26.715Z,20.43
2018-05-19T03:07:54.240Z,25.30
2018-05-19T03:10:21.764Z,23.37
2018-05-19T03:12:49.322Z,21.80
2018-05-19T03:15:16.834Z,18.50
2018-05-19T03:17:44.386Z,36.50
2018-05-19T03:20:11.910Z,15.90
2018-05-19T03:22:39.599Z,20.70
2018-05-19T03:25:07.117Z,19.83
2018-05-19T03:27:34.646Z,19.43
2018-05-19T03:30:02.330Z,18.30
2018-05-19T03:32:29.857Z,21.30
2018-05-19T03:34:57.377Z,18.00
2018-05-19T03:37:24.918Z,28.10
2018-05-19T03:39:52.438Z,20.67
2018-05-19T03:42:20.385Z,24.17
2018-05-19T03:44:47.904Z,25.60
2018-05-19T03:47:15.422Z,23.30
2018-05-19T03:49:42.961Z,26.60
2018-05-19T03:52:10.510Z,19.80
2018-05-19T03:54:38.049Z,20.43
2018-05-19T03:57:17.582Z,25.20
2018-05-19T03:59:57.054Z,26.20
2018-05-19T04:02:35.793Z,18.00
2018-05-19T04:05:03.314Z,22.23
2018-05-19T04:07:30.849Z,24.63
2018-05-19T04:09:58.389Z,24.70
2018-05-19T04:12:26.894Z,19.27
2018-05-19T04:14:54.434Z,16.30
2018-05-19T04:17:21.959Z,23.87
2018-05-19T04:19:49.634Z,20.67
2018-05-19T04:22:17.157Z,19.23
2018-05-19T04:24:44.684Z,22.63
2018-05-19T04:27:12.242Z,30.13
2018-05-19T04:29:39.771Z,23.73
2018-05-19T04:32:07.694Z,17.03
2018-05-19T04:34:35.213Z,29.13
2018-05-19T04:37:02.741Z,22.83
2018-05-19T04:39:30.721Z,22.73
2018-05-19T04:41:58.254Z,23.93
2018-05-19T04:44:25.790Z,18.43
2018-05-19T04:46:53.709Z,16.67
2018-05-19T04:49:21.248Z,20.07
2018-05-19T04:51:48.770Z,22.20
2018-05-19T04:54:16.320Z,25.30
2018-05-19T04:56:43.854Z,18.83
2018-05-19T04:59:11.412Z,20.67
2018-05-19T05:01:38.935Z,29.27
2018-05-19T05:04:06.615Z,20.93
2018-05-19T05:06:34.065Z,24.20
2018-05-19T05:09:01.592Z,23.87
2018-05-19T05:11:29.151Z,25.97
2018-05-19T05:13:56.727Z,20.23
2018-05-19T05:16:24.262Z,21.50
2018-05-19T05:18:51.794Z,20.17
2018-05-19T05:21:19.348Z,25.87
2018-05-19T05:23:46.942Z,18.00
2018-05-19T05:26:14.470Z,24.63
2018-05-19T05:28:42.005Z,27.10
2018-05-19T05:31:09.551Z,35.20
2018-05-19T05:33:37.089Z,22.33
2018-05-19T05:36:04.601Z,20.50
2018-05-19T05:38:32.281Z,17.90
2018-05-19T05:40:59.807Z,21.40
2018-05-19T05:43:27.327Z,37.87
2018-05-19T05:45:54.869Z,23.80
2018-05-19T05:48:22.400Z,29.40
2018-05-19T05:50:49.945Z,21.03
2018-05-19T05:53:17.457Z,26.70
2018-05-19T05:55:44.997Z,22.63
2018-05-19T05:58:12.573Z,25.80
2018-05-19T06:00:40.100Z,17.90
2018-05-19T06:03:07.626Z,25.13
2018-05-19T06:05:35.175Z,25.57
2018-05-19T06:08:02.707Z,23.07
2018-05-19T06:10:30.420Z,19.77
2018-05-19T06:12:57.946Z,27.13
2018-05-19T06:15:25.474Z,31.87
2018-05-19T06:17:53.032Z,32.20
2018-05-19T06:20:20.555Z,23.90
2018-05-19T06:22:48.295Z,24.67
2018-05-19T06:25:15.818Z,28.77
2018-05-19T06:27:43.356Z,32.70
2018-05-19T06:30:10.902Z,19.47
2018-05-19T06:32:38.417Z,20.97
2018-05-19T06:35:05.961Z,23.30
2018-05-19T06:37:33.486Z,26.50
2018-05-19T06:40:01.044Z,22.70
2018-05-19T06:42:28.585Z,25.80
2018-05-19T06:44:56.139Z,26.20
2018-05-19T06:47:24.117Z,19.73
2018-05-19T06:49:51.650Z,22.37
2018-05-19T06:52:19.169Z,21.00
2018-05-19T06:54:46.754Z,25.90
2018-05-19T06:57:14.347Z,25.67
2018-05-19T06:59:41.826Z,23.03
2018-05-19T07:02:09.370Z,25.27
2018-05-19T07:04:36.893Z,19.80
2018-05-19T07:07:04.442Z,20.97
2018-05-19T07:09:31.991Z,27.60
2018-05-19T07:11:59.531Z,19.70
2018-05-19T07:14:27.056Z,22.67
2018-05-19T07:16:54.601Z,22.10
2018-05-19T07:19:22.125Z,21.27
2018-05-19T07:21:49.674Z,19.50
2018-05-19T07:24:17.261Z,22.00
2018-05-19T07:26:44.806Z,21.00
2018-05-19T07:29:12.326Z,27.43
2018-05-19T07:31:39.874Z,23.23
2018-05-19T07:34:07.409Z,21.80
2018-05-19T07:36:34.990Z,18.23
2018-05-19T07:39:02.519Z,23.73
2018-05-19T07:41:30.043Z,19.00
2018-05-19T07:43:57.801Z,24.80
2018-05-19T07:46:25.320Z,21.97
2018-05-19T07:48:52.837Z,21.83
2018-05-19T07:51:20.387Z,24.77
2018-05-19T07:53:47.931Z,19.07
2018-05-19T07:56:15.473Z,22.97
2018-05-19T07:58:42.994Z,14.57
2018-05-19T08:01:10.550Z,22.80
2018-05-19T08:03:38.084Z,22.03
2018-05-19T08:06:05.636Z,21.60
2018-05-19T08:08:33.159Z,22.47
2018-05-19T08:11:00.703Z,16.90
2018-05-19T08:13:28.270Z,16.37
2018-05-19T08:15:55.789Z,24.33
2018-05-19T08:18:23.330Z,15.93
2018-05-19T08:20:50.867Z,18.30
2018-05-19T08:23:18.390Z,13.47
2018-05-19T08:25:45.939Z,17.83
2018-05-19T08:28:13.458Z,17.70
2018-05-19T08:30:40.973Z,13.20
2018-05-19T08:33:08.962Z,12.70
2018-05-19T08:35:36.478Z,16.33
2018-05-19T08:38:03.994Z,17.70
2018-05-19T08:40:31.550Z,17.57
2018-05-19T08:42:59.083Z,19.90
2018-05-19T08:45:26.622Z,14.20
2018-05-19T08:47:54.141Z,18.10
2018-05-19T08:50:21.695Z,17.90
2018-05-19T08:52:49.439Z,18.47
2018-05-19T08:55:16.957Z,18.77
2018-05-19T08:57:44.478Z,15.20
2018-05-19T09:00:12.163Z,14.03
2018-05-19T09:02:39.679Z,17.13
2018-05-19T09:05:07.203Z,15.47
2018-05-19T09:07:34.745Z,15.17
2018-05-19T09:10:02.277Z,11.83
2018-05-19T09:12:29.827Z,14.23
2018-05-19T09:14:57.368Z,13.43
2018-05-19T09:17:24.897Z,15.57
2018-05-19T09:19:52.793Z,10.93
2018-05-19T09:22:20.333Z,15.20
2018-05-19T09:24:47.868Z,12.37
2018-05-19T09:27:15.410Z,16.83
2018-05-19T09:29:42.957Z,9.10
2018-05-19T09:32:10.494Z,13.13
2018-05-19T09:34:38.014Z,10.80
2018-05-19T09:37:05.590Z,13.47
2018-05-19T09:39:33.117Z,11.37
2018-05-19T09:42:00.637Z,10.17
2018-05-19T09:44:28.177Z,15.37
2018-05-19T09:46:55.697Z,17.30
2018-05-19T09:49:23.246Z,11.90
2018-05-19T09:51:50.762Z,10.57
2018-05-19T09:54:18.309Z,23.30
2018-05-19T09:56:45.827Z,11.47
2018-05-19T09:59:13.374Z,15.93
2018-05-19T10:01:40.897Z,12.20
2018-05-19T10:04:08.443Z,11.93
2018-05-19T10:06:35.983Z,9.73
2018-05-19T10:09:04.075Z,12.03
2018-05-19T10:11:31.620Z,9.20
2018-05-19T10:13:59.132Z,9.27
2018-05-19T10:16:26.677Z,14.20
2018-05-19T10:18:54.198Z,11.27
2018-05-19T10:21:21.763Z,9.93
2018-05-19T10:23:49.288Z,11.93
2018-05-19T10:26:16.814Z,15.97
2018-05-19T10:28:44.367Z,11.13
2018-05-19T10:31:11.885Z,10.40
2018-05-19T10:33:39.631Z,12.27
2018-05-19T10:36:07.145Z,12.87
2018-05-19T10:38:34.687Z,12.87
2018-05-19T10:41:02.235Z,14.17
2018-05-19T10:43:29.758Z,11.13
2018-05-19T10:45:57.712Z,12.43
2018-05-19T10:48:25.238Z,13.23
2018-05-19T10:50:52.766Z,15.10
2018-05-19T10:53:20.309Z,15.90
2018-05-19T10:55:47.821Z,8.87
2018-05-19T10:58:15.573Z,12.80
2018-05-19T11:00:43.096Z,15.00
2018-05-19T11:03:10.614Z,10.27
2018-05-19T11:05:38.567Z,10.17
2018-05-19T11:08:06.093Z,15.63
2018-05-19T11:10:33.618Z,12.33
2018-05-19T11:13:01.193Z,11.80
2018-05-19T11:15:28.713Z,13.03
2018-05-19T11:17:56.234Z,12.20
2018-05-19T11:20:23.794Z,18.30
2018-05-19T11:22:51.309Z,13.83
2018-05-19T11:25:18.964Z,12.80
2018-05-19T11:27:46.420Z,11.00
2018-05-19T11:30:13.939Z,18.03
2018-05-19T11:32:41.480Z,13.03
2018-05-19T11:35:09.065Z,11.27
2018-05-19T11:37:36.661Z,11.97
2018-05-19T11:40:04.262Z,16.47
2018-05-19T11:42:31.818Z,14.03
2018-05-19T11:44:59.407Z,12.17
2018-05-19T11:47:26.929Z,15.87
2018-05-19T11:49:54.468Z,16.23
2018-05-19T11:52:22.056Z,12.77
2018-05-19T11:54:49.591Z,13.87
2018-05-19T11:57:17.109Z,14.77
2018-05-19T11:59:44.690Z,12.00
2018-05-19T12:02:12.205Z,15.77
2018-05-19T12:04:39.739Z,12.03
2018-05-19T12:07:07.290Z,12.23
2018-05-19T12:09:34.805Z,21.33
2018-05-19T12:12:02.451Z,10.93
2018-05-19T12:14:29.886Z,14.63
2018-05-19T12:16:57.438Z,13.73
2018-05-19T12:19:24.979Z,10.17
2018-05-19T12:21:52.630Z,14.60
2018-05-19T12:24:20.437Z,13.37
2018-05-19T12:26:47.955Z,11.67
2018-05-19T12:29:15.470Z,14.53
2018-05-19T12:31:43.018Z,15.20
2018-05-19T12:34:10.538Z,13.83
2018-05-19T12:36:38.501Z,11.10
2018-05-19T12:39:06.018Z,12.70
2018-05-19T12:41:33.641Z,13.20
2018-05-19T12:44:01.246Z,13.60
2018-05-19T12:46:28.767Z,14.10
2018-05-19T12:48:56.285Z,16.73
2018-05-19T12:51:23.826Z,13.37
2018-05-19T12:53:51.345Z,15.43
2018-05-19T12:56:18.931Z,13.80
2018-05-19T12:58:46.455Z,12.70
2018-05-19T13:01:13.970Z,16.97
2018-05-19T13:03:41.509Z,11.77
2018-05-19T13:06:09.056Z,13.60
2018-05-19T13:08:36.586Z,16.23
2018-05-19T13:11:04.125Z,13.53
2018-05-19T13:13:31.671Z,14.10
2018-05-19T13:15:59.222Z,16.43
2018-05-19T13:18:26.745Z,11.90
2018-05-19T13:20:54.290Z,20.03
2018-05-19T13:23:21.849Z,15.63
2018-05-19T13:25:49.437Z,16.03
2018-05-19T13:28:16.914Z,15.30
2018-05-19T13:30:44.462Z,13.67
2018-05-19T13:33:11.977Z,19.03
2018-05-19T13:35:39.517Z,14.77
2018-05-19T13:38:07.050Z,14.67
2018-05-19T13:40:34.598Z,14.17
2018-05-19T13:43:02.169Z,16.37
2018-05-19T13:45:29.694Z,21.43
2018-05-19T13:47:57.218Z,16.53
2018-05-19T13:50:24.769Z,13.70
2018-05-19T13:52:52.293Z,15.57
2018-05-19T13:55:19.838Z,18.23
2018-05-19T13:57:47.414Z,13.37
2018-05-19T14:00:14.926Z,14.70
2018-05-19T14:02:42.733Z,16.77
2018-05-19T14:05:10.315Z,15.43
2018-05-19T14:07:37.853Z,15.17
2018-05-19T14:10:05.380Z,18.77
2018-05-19T14:12:32.921Z,16.63
2018-05-19T14:15:00.437Z,10.80
2018-05-19T14:17:28.386Z,17.73
2018-05-19T14:19:55.913Z,19.67
2018-05-19T14:22:23.440Z,13.90
2018-05-19T14:24:50.991Z,14.60
2018-05-19T14:27:18.509Z,23.77
2018-05-19T14:29:46.053Z,22.60
2018-05-19T14:32:13.647Z,16.10
2018-05-19T14:34:41.165Z,17.87
2018-05-19T14:37:08.769Z,17.50
2018-05-19T14:39:36.649Z,16.90
2018-05-19T14:42:04.173Z,21.33
2018-05-19T14:44:31.718Z,22.03
2018-05-19T14:46:59.262Z,20.80
2018-05-19T14:49:26.781Z,20.13
2018-05-19T14:51:54.331Z,22.47
2018-05-19T14:54:21.864Z,18.17
2018-05-19T14:56:49.662Z,19.23
2018-05-19T14:59:17.181Z,28.27
2018-05-19T15:01:44.738Z,14.13
2018-05-19T15:04:12.489Z,18.33
2018-05-19T15:06:40.016Z,15.43
2018-05-19T15:09:07.544Z,22.33
2018-05-19T15:11:35.099Z,17.80
2018-05-19T15:14:02.631Z,19.17
2018-05-19T15:16:30.192Z,15.83
2018-05-19T15:18:57.717Z,18.60
2018-05-19T15:21:25.261Z,19.53
2018-05-19T15:23:52.782Z,17.20
2018-05-19T15:26:20.855Z,15.57
2018-05-19T15:28:48.370Z,20.17
2018-05-19T15:31:15.893Z,24.63
2018-05-19T15:33:43.574Z,21.67
2018-05-19T15:36:11.098Z,22.30
2018-05-19T15:38:38.711Z,24.43
2018-05-19T15:41:06.615Z,18.53
2018-05-19T15:43:34.149Z,19.40
2018-05-19T15:46:01.679Z,19.17
2018-05-19T15:48:29.622Z,20.13
2018-05-19T15:50:57.141Z,18.60
2018-05-19T15:53:24.670Z,19.47
2018-05-19T15:55:52.221Z,22.83
2018-05-19T15:58:19.746Z,26.20
2018-05-19T16:00:47.322Z,20.47
2018-05-19T16:03:14.850Z,21.30
2018-05-19T16:05:42.382Z,29.60
2018-05-19T16:08:10.114Z,17.63
2018-05-19T16:10:37.639Z,19.50
2018-05-19T16:13:05.154Z,15.23
2018-05-19T16:15:32.718Z,24.53
2018-05-19T16:18:00.257Z,16.70
2018-05-19T16:20:27.791Z,19.40
2018-05-19T16:22:55.653Z,19.40
2018-05-19T16:25:23.177Z,19.80
2018-05-19T16:27:50.697Z,21.43
2018-05-19T16:30:18.266Z,20.17
2018-05-19T16:32:45.826Z,25.03
2018-05-19T16:35:13.358Z,20.10
2018-05-19T16:37:40.909Z,19.83
2018-05-19T16:40:08.670Z,20.03
2018-05-19T16:42:36.193Z,27.63
2018-05-19T16:45:03.890Z,19.53
2018-05-19T16:47:31.434Z,24.47
2018-05-19T16:49:58.950Z,19.07
2018-05-19T16:52:26.633Z,23.50
2018-05-19T16:54:54.154Z,23.60
2018-05-19T16:57:21.678Z,24.20
2018-05-19T16:59:49.230Z,23.80
2018-05-19T17:02:16.757Z,22.00
2018-05-19T17:04:44.306Z,22.80
2018-05-19T17:07:11.889Z,23.40
2018-05-19T17:09:39.449Z,19.60
2018-05-19T17:12:06.969Z,19.73
2018-05-19T17:14:34.508Z,22.53
2018-05-19T17:17:02.185Z,24.47
2018-05-19T17:19:29.713Z,22.40
2018-05-19T17:21:57.335Z,27.63
2018-05-19T17:24:24.814Z,25.60
2018-05-19T17:26:52.361Z,20.60
2018-05-19T17:29:19.882Z,21.90
2018-05-19T17:31:47.606Z,21.33
2018-05-19T17:34:15.125Z,25.10
2018-05-19T17:36:42.643Z,25.20
2018-05-19T17:39:11.033Z,24.40
2018-05-19T17:41:38.558Z,23.20
2018-05-19T17:44:06.099Z,22.00
2018-05-19T17:46:33.675Z,24.43
2018-05-19T17:49:01.325Z,23.30
2018-05-19T17:51:28.852Z,24.20
2018-05-19T17:53:56.373Z,25.07
2018-05-19T17:56:24.792Z,24.70
2018-05-19T17:58:52.331Z,24.67
2018-05-19T18:01:20.163Z,26.17
2018-05-19T18:03:47.710Z,26.70
2018-05-19T18:06:15.257Z,23.50
2018-05-19T18:08:42.825Z,21.97
2018-05-19T18:11:10.354Z,24.60
2018-05-19T18:13:37.874Z,19.77
2018-05-19T18:16:05.432Z,23.60
2018-05-19T18:18:33.003Z,19.73
2018-05-19T18:21:00.590Z,23.60
2018-05-19T18:23:28.120Z,19.10
2018-05-19T18:25:55.641Z,25.23
2018-05-19T18:28:23.713Z,25.03
2018-05-19T18:30:51.437Z,30.27
2018-05-19T18:33:19.065Z,21.07
2018-05-19T18:35:46.593Z,26.73
2018-05-19T18:38:14.141Z,23.07
2018-05-19T18:40:41.743Z,21.17
2018-05-19T18:43:09.681Z,28.57
2018-05-19T18:45:37.367Z,23.00
2018-05-19T18:48:04.923Z,21.47
2018-05-19T18:50:32.533Z,18.67
2018-05-19T18:53:00.899Z,23.20
2018-05-19T18:55:28.617Z,22.30
2018-05-19T18:57:56.177Z,26.13
2018-05-19T19:00:23.738Z,26.27
2018-05-19T19:02:51.301Z,23.30
2018-05-19T19:05:18.958Z,24.10
2018-05-19T19:07:46.510Z,22.07
2018-05-19T19:10:14.172Z,22.67
2018-05-19T19:12:41.725Z,19.73
2018-05-19T19:15:09.249Z,25.10
2018-05-19T19:17:36.831Z,29.47
2018-05-19T19:20:04.362Z,28.37
2018-05-19T19:22:31.885Z,23.20
2018-05-19T19:24:59.457Z,33.40
2018-05-19T19:27:26.981Z,25.50
2018-05-19T19:29:54.638Z,25.90
2018-05-19T19:32:22.195Z,27.43
2018-05-19T19:34:49.727Z,29.13
2018-05-19T19:37:17.270Z,29.97
2018-05-19T19:39:44.818Z,27.33
2018-05-19T19:42:12.445Z,24.07
2018-05-19T19:44:40.002Z,29.00
2018-05-19T19:47:07.918Z,28.10
2018-05-19T19:49:35.445Z,22.67
2018-05-19T19:52:02.974Z,22.73
2018-05-19T19:54:30.542Z,29.40
2018-05-19T19:56:58.082Z,27.03
2018-05-19T19:59:25.738Z,25.57
2018-05-19T20:01:53.213Z,27.03
2018-05-19T20:04:20.738Z,28.57
2018-05-19T20:06:48.281Z,23.10
2018-05-19T20:09:15.808Z,29.10
2018-05-19T20:11:43.557Z,27.73
2018-05-19T20:14:11.101Z,24.67
2018-05-19T20:16:38.635Z,26.37
2018-05-19T20:19:06.186Z,25.83
2018-05-19T20:21:33.713Z,33.77
2018-05-19T20:24:01.272Z,23.63
2018-05-19T20:26:28.939Z,29.03
2018-05-19T20:28:56.456Z,28.77
2018-05-19T20:31:23.986Z,26.25
2018-05-19T20:33:51.575Z,30.00
2018-05-19T20:36:19.097Z,24.40
2018-05-19T20:38:46.624Z,32.07
2018-05-19T20:41:14.179Z,24.40
2018-05-19T20:43:41.910Z,31.27
2018-05-19T20:46:09.433Z,29.30
2018-05-19T20:48:36.984Z,30.07
2018-05-19T20:51:05.073Z,30.03
2018-05-19T20:53:32.577Z,32.13
2018-05-19T20:56:00.106Z,27.93
2018-05-19T20:58:27.659Z,31.90
2018-05-19T21:00:55.177Z,32.47
2018-05-19T21:03:22.907Z,25.60
2018-05-19T21:05:50.433Z,31.87
2018-05-19T21:08:17.960Z,34.03
2018-05-19T21:10:45.509Z,29.20
2018-05-19T21:13:13.049Z,34.10
2018-05-19T21:15:40.604Z,34.33
2018-05-19T21:18:08.149Z,34.40
2018-05-19T21:20:35.674Z,38.90
2018-05-19T21:23:03.225Z,37.60
2018-05-19T21:25:30.774Z,32.07
2018-05-19T21:27:58.317Z,33.30
2018-05-19T21:30:25.835Z,35.70
2018-05-19T21:32:53.386Z,43.07
2018-05-19T21:35:20.948Z,35.33
2018-05-19T21:37:48.498Z,39.00
2018-05-19T21:40:16.189Z,37.77
2018-05-19T21:42:43.723Z,39.87
2018-05-19T21:45:11.251Z,41.33
2018-05-19T21:47:38.798Z,45.70
2018-05-19T21:50:06.415Z,31.93
2018-05-19T21:52:34.055Z,36.67
2018-05-19T21:55:01.577Z,46.13
2018-05-19T21:57:29.124Z,36.40
2018-05-19T21:59:56.669Z,36.77
2018-05-19T22:02:24.194Z,41.23
2018-05-19T22:04:51.772Z,43.30
2018-05-19T22:07:19.310Z,42.90
2018-05-19T22:09:46.834Z,40.30
2018-05-19T22:12:14.381Z,44.17
2018-05-19T22:14:41.920Z,38.17
2018-05-19T22:17:09.471Z,40.33
2018-05-19T22:19:36.988Z,40.67
2018-05-19T22:22:04.664Z,44.60
2018-05-19T22:24:32.185Z,55.20
2018-05-19T22:26:59.711Z,38.83
2018-05-19T22:29:27.311Z,37.20
2018-05-19T22:31:54.842Z,44.80
2018-05-19T22:34:22.379Z,45.37
2018-05-19T22:36:49.965Z,38.00
2018-05-19T22:39:17.489Z,52.60
2018-05-19T22:41:45.037Z,42.73
2018-05-19T22:44:12.553Z,42.87
2018-05-19T22:46:40.092Z,41.00
2018-05-19T22:49:07.613Z,43.47
2018-05-19T22:51:35.210Z,59.97
2018-05-19T22:54:02.758Z,48.07
2018-05-19T22:56:30.301Z,50.90
2018-05-19T22:58:58.235Z,53.87
2018-05-19T23:01:25.757Z,51.13
2018-05-19T23:03:53.290Z,50.67
2018-05-19T23:06:20.833Z,49.83
2018-05-19T23:08:48.353Z,53.07
2018-05-19T23:11:15.914Z,51.87
2018-05-19T23:13:43.443Z,48.90
2018-05-19T23:16:10.989Z,48.67
2018-05-19T23:18:39.018Z,47.43
2018-05-19T23:21:06.533Z,47.83
2018-05-19T23:23:34.062Z,47.73
2018-05-19T23:26:01.623Z,46.87
2018-05-19T23:28:29.174Z,52.50
2018-05-19T23:30:56.692Z,45.90
2018-05-19T23:33:24.374Z,54.17
2018-05-19T23:35:51.901Z,54.00
2018-05-19T23:38:19.425Z,45.03
2018-05-19T23:40:46.965Z,55.63
2018-05-19T23:43:14.489Z,49.07
2018-05-19T23:45:42.037Z,53.83
2018-05-19T23:48:09.557Z,48.80
2018-05-19T23:50:37.101Z,46.80
2018-05-19T23:53:04.628Z,57.93
2018-05-19T23:55:32.183Z,48.10
2018-05-19T23:57:59.725Z,50.20
